Time;durP1;ratioP1;P1;durP2;ratioP2;P2;SDS_P1;SDS_P2;PMS_P1;PMS_P2;Temp;Humidity;BMP_temperature;BMP_pressure;BME280_temperature;BME280_humidity;BME280_pressure;Samples;Min_cycle;Max_cycle;Signal;HPM_P1;HPM_P2
2023/09/09 00:01:00;;;;;;;3.33;3.03;;;;;;;;;;6095679;23;20373;-76
2023/09/09 00:03:26;;;;;;;3.60;3.30;;;;;;;;;;6095577;23;20013;-75
2023/09/09 00:05:52;;;;;;;4.00;3.70;;;;;;;;;;6105062;23;19998;-76
2023/09/09 00:08:19;;;;;;;3.80;3.50;;;;;;;;;;6104970;23;20008;-75
2023/09/09 00:10:45;;;;;;;3.80;3.50;;;;;;;;;;6104950;23;20331;-76
2023/09/09 00:13:11;;;;;;;3.80;3.50;;;;;;;;;;6105039;23;20334;-75
2023/09/09 00:15:37;;;;;;;3.50;3.20;;;;;;;;;;6105372;23;20009;-71
2023/09/09 00:18:04;;;;;;;3.72;3.42;;;;;;;;;;6104818;23;19994;-71
2023/09/09 00:20:32;;;;;;;3.67;3.38;;;30.00;63.70;;;;;;6104904;23;20026;-72
2023/09/09 00:22:58;;;;;;;4.68;3.20;;;;;;;;;;6105051;23;19995;-72
2023/09/09 00:25:24;;;;;;;4.45;4.05;;;;;;;;;;6095003;23;20002;-72
2023/09/09 00:27:50;;;;;;;3.58;3.28;;;;;;;;;;6105022;23;20445;-75
2023/09/09 00:30:16;;;;;;;3.85;3.55;;;;;;;;;;6104854;23;20006;-75
2023/09/09 00:32:42;;;;;;;3.63;3.33;;;;;;;;;;6104919;23;20001;-75
2023/09/09 00:35:08;;;;;;;3.75;3.45;;;;;;;;;;6104588;23;20446;-75
2023/09/09 00:37:34;;;;;;;3.67;3.38;;;;;;;;;;6104738;23;20005;-76
2023/09/09 00:40:00;;;;;;;4.13;3.72;;;;;;;;;;6104906;23;20007;-75
2023/09/09 00:42:26;;;;;;;3.97;3.58;;;;;;;;;;6104698;23;19998;-75
2023/09/09 00:44:52;;;;;;;4.03;3.72;;;;;;;;;;6105435;23;20025;-72
2023/09/09 00:47:19;;;;;;;3.65;3.25;;;;;;;;;;6104840;23;19995;-72
2023/09/09 00:49:45;;;;;;;3.85;3.55;;;;;;;;;;6104805;23;20018;-72
2023/09/09 00:52:11;;;;;;;3.92;3.63;;;;;;;;;;6104803;23;20005;-72
2023/09/09 00:54:37;;;;;;;4.20;3.80;;;;;;;;;;6104803;23;20065;-72
2023/09/09 00:57:04;;;;;;;3.70;3.40;;;29.80;63.70;;;;;;6104866;23;20046;-72
2023/09/09 00:59:30;;;;;;;4.10;3.70;;;;;;;;;;6095263;23;19995;-72
2023/09/09 01:01:59;;;;;;;4.20;3.90;;;30.00;58.00;;;;;;6104817;23;20073;-72
2023/09/09 01:04:25;;;;;;;4.05;3.70;;;;;;;;;;6104671;23;20006;-72
2023/09/09 01:06:52;;;;;;;4.15;3.65;;;29.80;63.60;;;;;;6104715;23;20006;-72
2023/09/09 01:09:18;;;;;;;3.95;3.65;;;29.70;62.50;;;;;;6104658;23;20382;-72
2023/09/09 01:11:44;;;;;;;3.50;3.22;;;;;;;;;;6105254;23;20030;-76
2023/09/09 01:14:11;;;;;;;4.30;3.95;;;;;;;;;;6093475;23;20062;-76
2023/09/09 01:16:37;;;;;;;3.95;3.60;;;;;;;;;;6104744;23;20010;-76
2023/09/09 01:19:04;;;;;;;3.95;3.55;;;29.70;61.90;;;;;;6104822;23;19998;-76
2023/09/09 01:21:32;;;;;;;3.78;3.47;;;29.70;64.10;;;;;;6105833;23;20077;-76
2023/09/09 01:23:58;;;;;;;3.88;3.58;;;;;;;;;;6106691;23;19998;-76
2023/09/09 01:26:24;;;;;;;3.53;3.22;;;;;;;;;;6106533;23;20395;-76
2023/09/09 01:28:51;;;;;;;3.75;3.45;;;;;;;;;;6106433;23;20434;-76
2023/09/09 01:31:17;;;;;;;3.38;3.05;;;;;;;;;;6097064;23;20363;-76
2023/09/09 01:33:43;;;;;;;4.05;3.65;;;;;;;;;;6094985;23;20022;-76
2023/09/09 01:36:09;;;;;;;3.58;3.28;;;;;;;;;;6104688;23;20014;-76
2023/09/09 01:38:35;;;;;;;4.35;3.97;;;;;;;;;;6096809;23;20103;-76
2023/09/09 01:41:02;;;;;;;3.95;3.55;;;29.60;60.40;;;;;;6097013;23;20445;-72
2023/09/09 01:43:28;;;;;;;3.92;3.55;;;;;;;;;;6106232;23;20002;-72
2023/09/09 01:45:54;;;;;;;4.20;3.80;;;;;;;;;;6105920;23;20007;-72
2023/09/09 01:48:20;;;;;;;3.60;3.30;;;;;;;;;;6106035;23;20053;-72
2023/09/09 01:50:46;;;;;;;3.97;3.55;;;;;;;;;;6105875;23;20010;-72
2023/09/09 01:53:13;;;;;;;3.80;3.50;;;;;;;;;;6106175;23;19998;-72
2023/09/09 01:55:39;;;;;;;3.75;3.45;;;;;;;;;;6106005;23;20006;-72
2023/09/09 01:58:05;;;;;;;4.32;3.92;;;;;;;;;;6105901;23;19998;-72
2023/09/09 02:00:31;;;;;;;3.65;3.17;;;;;;;;;;6106134;23;20582;-72
2023/09/09 02:02:57;;;;;;;3.75;3.45;;;;;;;;;;6105880;23;20458;-72
2023/09/09 02:05:23;;;;;;;3.70;3.40;;;;;;;;;;6105934;23;20057;-72
2023/09/09 02:07:49;;;;;;;3.72;3.42;;;;;;;;;;6105881;23;20003;-72
2023/09/09 02:10:15;;;;;;;3.83;3.53;;;;;;;;;;6106486;23;20086;-75
2023/09/09 02:12:41;;;;;;;3.65;3.35;;;;;;;;;;6105925;23;19998;-75
2023/09/09 02:15:09;;;;;;;4.72;4.18;;;29.30;64.10;;;;;;6106132;23;19999;-75
2023/09/09 02:17:36;;;;;;;3.22;2.95;;;;;;;;;;6105938;23;20002;-75
2023/09/09 02:20:04;;;;;;;3.58;3.28;;;29.40;61.60;;;;;;6105938;23;19998;-76
2023/09/09 02:22:30;;;;;;;3.70;3.35;;;;;;;;;;6096286;23;20006;-76
2023/09/09 02:24:57;;;;;;;3.83;3.45;;;;;;;;;;6096541;23;20010;-75
2023/09/09 02:27:24;;;;;;;4.60;3.72;;;;;;;;;;6096615;23;20072;-75
2023/09/09 02:29:50;;;;;;;3.65;3.35;;;;;;;;;;6096185;23;20044;-75
2023/09/09 02:32:17;;;;;;;4.10;3.70;;;;;;;;;;6095509;23;20444;-76
2023/09/09 02:34:44;;;;;;;3.90;3.60;;;;;;;;;;6095978;23;20296;-75
2023/09/09 02:37:21;;;;;;;4.07;3.75;;;29.20;64.40;;;;;;6096532;23;20003;-72
2023/09/09 02:39:48;;;;;;;3.85;3.55;;;29.20;63.00;;;;;;6105750;23;20003;-72
2023/09/09 02:42:16;;;;;;;3.50;3.20;;;29.20;64.30;;;;;;6105829;23;20073;-72
2023/09/09 02:44:43;;;;;;;3.80;3.50;;;;;;;;;;6105729;23;20003;-72
2023/09/09 02:47:10;;;;;;;4.28;3.63;;;29.10;64.20;;;;;;6096237;23;20068;-71
2023/09/09 02:49:40;;;;;;;4.05;3.70;;;29.20;64.10;;;;;;6105701;23;20010;-75
2023/09/09 02:52:09;;;;;;;4.25;3.85;;;29.10;63.00;;;;;;6105659;23;20002;-75
2023/09/09 02:54:35;;;;;;;3.60;3.30;;;;;;;;;;6105754;23;20426;-76
2023/09/09 02:57:03;;;;;;;4.72;4.18;;;;;;;;;;6105540;23;19999;-75
2023/09/09 02:59:30;;;;;;;4.00;3.60;;;;;;;;;;6105754;23;20003;-76
2023/09/09 03:01:56;;;;;;;4.22;3.38;;;;;;;;;;6105544;23;20002;-75
2023/09/09 03:04:22;;;;;;;3.95;3.65;;;;;;;;;;6105677;23;20014;-75
2023/09/09 03:06:48;;;;;;;3.67;3.38;;;;;;;;;;6106103;23;20021;-72
2023/09/09 03:09:15;;;;;;;3.90;3.60;;;;;;;;;;6105399;23;19998;-72
2023/09/09 03:11:41;;;;;;;3.75;3.45;;;;;;;;;;6105541;23;19998;-71
2023/09/09 03:14:08;;;;;;;4.18;3.78;;;;;;;;;;6105340;23;20493;-72
2023/09/09 03:16:34;;;;;;;3.90;3.60;;;;;;;;;;6095637;23;20002;-72
2023/09/09 03:19:00;;;;;;;3.70;3.40;;;;;;;;;;6105425;23;19994;-72
2023/09/09 03:21:26;;;;;;;3.70;3.40;;;;;;;;;;6105442;23;19999;-72
2023/09/09 03:23:52;;;;;;;3.83;3.42;;;;;;;;;;6105502;23;20077;-72
2023/09/09 03:26:22;;;;;;;3.65;3.35;;;;;;;;;;6105354;23;19995;-72
2023/09/09 03:28:48;;;;;;;3.47;3.17;;;;;;;;;;6095604;23;20033;-72
2023/09/09 03:31:15;;;;;;;3.83;3.42;;;;;;;;;;6105240;23;20010;-72
2023/09/09 03:33:43;;;;;;;3.58;3.28;;;28.90;59.10;;;;;;6105513;23;20026;-72
2023/09/09 03:36:10;;;;;;;4.07;3.67;;;;;;;;;;6105046;23;20307;-75
2023/09/09 03:38:36;;;;;;;5.15;4.03;;;;;;;;;;6105177;23;19999;-75
2023/09/09 03:41:06;;;;;;;4.40;3.63;;;28.90;59.00;;;;;;6095333;23;20014;-75
2023/09/09 03:43:32;;;;;;;4.45;4.05;;;;;;;;;;6105258;23;20026;-75
2023/09/09 03:45:58;;;;;;;4.10;3.53;;;;;;;;;;6105259;23;19999;-75
2023/09/09 03:48:24;;;;;;;3.78;3.47;;;;;;;;;;6105137;23;20398;-75
2023/09/09 03:50:51;;;;;;;4.30;3.90;;;;;;;;;;6095458;23;20085;-74
2023/09/09 03:53:17;;;;;;;3.70;3.40;;;;;;;;;;6104960;23;20053;-75
2023/09/09 03:55:43;;;;;;;3.80;3.50;;;;;;;;;;6105095;23;20007;-75
2023/09/09 03:58:09;;;;;;;3.85;3.55;;;;;;;;;;6104696;23;19998;-75
2023/09/09 04:00:36;;;;;;;4.30;3.25;;;28.80;64.90;;;;;;6104799;23;19999;-75
2023/09/09 04:03:02;;;;;;;4.13;3.70;;;;;;;;;;6105491;23;19999;-71
2023/09/09 04:05:28;;;;;;;4.30;3.03;;;;;;;;;;6104772;23;20069;-71
2023/09/09 04:07:58;;;;;;;3.60;3.30;;;;;;;;;;6104818;23;20037;-71
2023/09/09 04:10:24;;;;;;;3.70;3.40;;;;;;;;;;6095292;23;20014;-72
2023/09/09 04:12:50;;;;;;;4.03;3.55;;;;;;;;;;6104769;23;20442;-71
2023/09/09 04:15:16;;;;;;;3.88;3.47;;;;;;;;;;6104761;23;20006;-71
2023/09/09 04:17:42;;;;;;;3.83;3.50;;;;;;;;;;6104734;23;20001;-71
2023/09/09 04:20:11;;;;;;;3.95;3.55;;;;;;;;;;6104645;23;20006;-71
2023/09/09 04:22:37;;;;;;;3.53;3.22;;;;;;;;;;6104678;23;19994;-72
2023/09/09 04:25:03;;;;;;;3.60;3.30;;;;;;;;;;6104800;23;20006;-71
2023/09/09 04:27:30;;;;;;;3.63;3.33;;;;;;;;;;6104775;23;20358;-72
2023/09/09 04:29:56;;;;;;;3.75;3.45;;;;;;;;;;6104896;23;20333;-72
2023/09/09 04:32:22;;;;;;;3.60;3.30;;;;;;;;;;6105422;23;19995;-76
2023/09/09 04:34:48;;;;;;;3.40;3.15;;;;;;;;;;6093290;23;20505;-75
2023/09/09 04:37:16;;;;;;;3.60;3.30;;;;;;;;;;6104951;23;20509;-75
2023/09/09 04:39:42;;;;;;;3.42;3.13;;;;;;;;;;6104891;23;20005;-75
2023/09/09 04:42:08;;;;;;;3.40;3.10;;;;;;;;;;6104855;23;19994;-75
2023/09/09 04:44:34;;;;;;;3.50;3.20;;;;;;;;;;6104947;23;20010;-76
2023/09/09 04:47:00;;;;;;;3.30;3.00;;;;;;;;;;6104765;23;20329;-76
2023/09/09 04:49:26;;;;;;;5.22;3.40;;;;;;;;;;6104725;23;20054;-75
2023/09/09 04:51:52;;;;;;;3.67;3.28;;;;;;;;;;6104726;23;19999;-75
2023/09/09 04:54:18;;;;;;;3.50;3.17;;;;;;;;;;6104806;23;19995;-75
2023/09/09 04:56:46;;;;;;;3.20;3.00;;;;;;;;;;6106128;23;20205;-75
2023/09/09 04:59:14;;;;;;;2.97;2.75;;;28.40;59.50;;;;;;6107245;23;20018;-74
2023/09/09 05:01:41;;;;;;;3.17;2.97;;;;;;;;;;6106547;23;20006;-72
2023/09/09 05:04:07;;;;;;;3.58;3.28;;;;;;;;;;6106722;23;20007;-72
2023/09/09 05:06:33;;;;;;;2.95;2.75;;;;;;;;;;6106469;23;20028;-72
2023/09/09 05:08:59;;;;;;;3.42;3.13;;;;;;;;;;6106446;23;20081;-73
2023/09/09 05:11:25;;;;;;;3.35;3.00;;;;;;;;;;6108482;23;20010;-76
2023/09/09 05:13:51;;;;;;;3.30;3.00;;;;;;;;;;6106322;23;20009;-74
2023/09/09 05:16:17;;;;;;;2.97;2.78;;;;;;;;;;6106178;23;20298;-75
2023/09/09 05:18:43;;;;;;;3.25;2.97;;;;;;;;;;6106090;23;20382;-75
2023/09/09 05:21:09;;;;;;;2.90;2.70;;;;;;;;;;6094822;23;20466;-76
2023/09/09 05:23:35;;;;;;;2.70;2.50;;;;;;;;;;6106129;23;20006;-74
2023/09/09 05:26:02;;;;;;;3.03;2.72;;;;;;;;;;6106157;23;20009;-75
2023/09/09 05:28:28;;;;;;;3.20;2.90;;;;;;;;;;6106793;23;20311;-71
2023/09/09 05:30:54;;;;;;;2.65;2.45;;;;;;;;;;6106253;23;20034;-73
2023/09/09 05:33:20;;;;;;;2.90;2.70;;;;;;;;;;6106215;23;19999;-72
2023/09/09 05:35:50;;;;;;;2.42;2.25;;;28.20;65.30;;;;;;6106012;23;20041;-72
2023/09/09 05:38:16;;;;;;;3.30;3.00;;;;;;;;;;6106478;23;20082;-72
2023/09/09 05:40:42;;;;;;;2.80;2.60;;;;;;;;;;6106302;23;20029;-76
2023/09/09 05:43:08;;;;;;;2.58;2.33;;;;;;;;;;6106209;23;20053;-75
2023/09/09 05:45:34;;;;;;;2.83;2.60;;;;;;;;;;6105974;23;20006;-75
2023/09/09 05:48:00;;;;;;;2.88;2.67;;;;;;;;;;6105810;23;20061;-75
2023/09/09 05:50:26;;;;;;;2.47;2.28;;;;;;;;;;6105882;23;20427;-75
2023/09/09 05:52:52;;;;;;;13.25;3.45;;;;;;;;;;6105913;23;20026;-75
2023/09/09 05:55:18;;;;;;;2.33;2.20;;;;;;;;;;6106047;23;20050;-75
2023/09/09 05:57:44;;;;;;;3.22;2.80;;;;;;;;;;6106383;23;20334;-72
2023/09/09 06:00:11;;;;;;;3.28;2.97;;;;;;;;;;6106135;23;20009;-72
2023/09/09 06:02:37;;;;;;;2.80;2.60;;;;;;;;;;6105900;23;20003;-72
2023/09/09 06:05:03;;;;;;;3.03;2.78;;;;;;;;;;6105926;23;20002;-73
2023/09/09 06:07:29;;;;;;;2.50;2.30;;;;;;;;;;6105815;23;20430;-72
2023/09/09 06:09:55;;;;;;;2.80;2.60;;;;;;;;;;6105849;23;20010;-72
2023/09/09 06:12:21;;;;;;;2.70;2.50;;;;;;;;;;6105978;23;19998;-72
2023/09/09 06:14:47;;;;;;;2.63;2.42;;;;;;;;;;6105852;23;20319;-72
2023/09/09 06:17:13;;;;;;;2.58;2.38;;;;;;;;;;6095953;23;20508;-72
2023/09/09 06:19:40;;;;;;;2.75;2.53;;;;;;;;;;6096007;23;19998;-72
2023/09/09 06:22:07;;;;;;;2.83;2.30;;;;;;;;;;6096333;23;20007;-72
2023/09/09 06:24:33;;;;;;;2.42;2.22;;;;;;;;;;6096345;23;20014;-72
2023/09/09 06:27:00;;;;;;;2.58;2.28;;;;;;;;;;6096752;23;20337;-75
2023/09/09 06:29:28;;;;;;;2.53;2.20;;;;;;;;;;6095765;23;20465;-75
2023/09/09 06:31:54;;;;;;;2.40;2.20;;;;;;;;;;6096065;23;20014;-75
2023/09/09 06:34:21;;;;;;;2.45;2.25;;;;;;;;;;6100333;23;20002;-75
2023/09/09 06:36:47;;;;;;;2.55;2.35;;;;;;;;;;6096041;23;20014;-76
2023/09/09 06:39:14;;;;;;;3.67;2.65;;;;;;;;;;6096112;23;20006;-76
2023/09/09 06:41:40;;;;;;;3.38;3.08;;;;;;;;;;6095754;23;20007;-78
2023/09/09 06:44:07;;;;;;;3.20;2.97;;;;;;;;;;6094232;23;20058;-77
2023/09/09 06:46:33;;;;;;;4.35;3.65;;;;;;;;;;6095721;23;20002;-77
2023/09/09 06:49:00;;;;;;;3.88;3.47;;;;;;;;;;6095973;23;20138;-76
2023/09/09 06:51:26;;;;;;;4.28;3.72;;;;;;;;;;6095967;23;20025;-73
2023/09/09 06:53:52;;;;;;;4.45;3.72;;;;;;;;;;6096450;23;20002;-75
2023/09/09 06:56:19;;;;;;;4.10;3.70;;;;;;;;;;6095919;23;20006;-74
2023/09/09 06:58:45;;;;;;;3.75;3.45;;;;;;;;;;6095917;23;20003;-74
2023/09/09 07:01:12;;;;;;;4.30;3.90;;;;;;;;;;6095912;23;20081;-76
2023/09/09 07:03:38;;;;;;;4.00;3.60;;;;;;;;;;6105420;23;20002;-74
2023/09/09 07:06:04;;;;;;;4.32;3.92;;;;;;;;;;6105690;23;20009;-74
2023/09/09 07:08:30;;;;;;;3.78;3.47;;;;;;;;;;6105295;23;20316;-76
2023/09/09 07:10:56;;;;;;;3.65;3.35;;;;;;;;;;6093651;23;20010;-75
2023/09/09 07:13:23;;;;;;;4.03;3.47;;;27.80;63.00;;;;;;6095784;23;20036;-74
2023/09/09 07:15:55;;;;;;;5.75;3.80;;;27.80;60.80;;;;;;6105241;23;19998;-79
2023/09/09 07:18:21;;;;;;;4.28;3.67;;;;;;;;;;6105191;23;20108;-75
2023/09/09 07:20:48;;;;;;;5.32;3.90;;;;;;;;;;6105229;23;20065;-76
2023/09/09 07:23:17;;;;;;;5.40;3.63;;;27.80;60.70;;;;;;6105547;23;20002;-81
2023/09/09 07:25:44;;;;;;;4.22;3.63;;;;;;;;;;6105245;23;20137;-77
2023/09/09 07:28:11;;;;;;;3.80;3.45;;;;;;;;;;6104910;23;20382;-77
2023/09/09 07:30:37;;;;;;;4.88;3.78;;;;;;;;;;6104895;23;20073;-84
2023/09/09 07:33:03;;;;;;;4.70;3.88;;;;;;;;;;6105076;23;20002;-79
2023/09/09 07:35:29;;;;;;;4.82;4.18;;;;;;;;;;6094872;23;20036;-75
2023/09/09 07:37:56;;;;;;;4.88;3.65;;;;;;;;;;6095516;23;20283;-76
2023/09/09 07:40:22;;;;;;;4.75;4.00;;;;;;;;;;6095630;23;20007;-76
2023/09/09 07:42:50;;;;;;;3.75;3.45;;;27.80;64.50;;;;;;6095188;23;20073;-76
2023/09/09 07:45:19;;;;;;;4.82;4.28;;;;;;;;;;6095481;23;20412;-75
2023/09/09 07:47:46;;;;;;;4.47;4.07;;;;;;;;;;6095472;23;20009;-75
2023/09/09 07:50:12;;;;;;;4.97;4.47;;;;;;;;;;6095786;23;20484;-75
2023/09/09 07:52:38;;;;;;;5.15;4.25;;;;;;;;;;6105057;23;19998;-75
2023/09/09 07:55:05;;;;;;;4.90;4.03;;;;;;;;;;6105059;23;20002;-75
2023/09/09 07:57:31;;;;;;;4.68;3.80;;;;;;;;;;6104987;23;19995;-75
2023/09/09 07:59:57;;;;;;;5.80;4.03;;;;;;;;;;6105173;23;20342;-75
2023/09/09 08:02:23;;;;;;;4.93;4.43;;;;;;;;;;6105154;23;20006;-80
2023/09/09 08:04:49;;;;;;;5.05;3.70;;;;;;;;;;6105074;23;20003;-76
2023/09/09 08:07:15;;;;;;;4.40;3.88;;;;;;;;;;6095665;23;20002;-75
2023/09/09 08:09:41;;;;;;;4.35;3.95;;;;;;;;;;6105089;23;20013;-77
2023/09/09 08:12:07;;;;;;;5.13;4.60;;;;;;;;;;6105014;23;19995;-75
2023/09/09 08:14:33;;;;;;;5.60;4.63;;;;;;;;;;6105098;23;20005;-75
2023/09/09 08:16:59;;;;;;;5.97;5.10;;;;;;;;;;6105126;23;20002;-76
2023/09/09 08:19:25;;;;;;;5.03;4.50;;;;;;;;;;6105510;23;20078;-75
2023/09/09 08:21:51;;;;;;;5.72;4.55;;;;;;;;;;6105030;23;20434;-75
2023/09/09 08:24:17;;;;;;;6.57;5.45;;;;;;;;;;6104997;23;19995;-75
2023/09/09 08:26:43;;;;;;;5.90;5.30;;;;;;;;;;6105033;23;19999;-74
2023/09/09 08:29:09;;;;;;;5.78;5.20;;;;;;;;;;6104951;23;19998;-75
2023/09/09 08:31:36;;;;;;;7.63;5.40;;;;;;;;;;6097349;23;20011;-75
2023/09/09 08:34:02;;;;;;;5.88;5.07;;;;;;;;;;6098083;23;20442;-75
2023/09/09 08:36:29;;;;;;;5.35;4.82;;;;;;;;;;6096712;23;20022;-80
2023/09/09 08:38:57;;;;;;;5.72;5.00;;;;;;;;;;6097258;23;20442;-76
2023/09/09 08:41:47;;;;;;;7.72;5.30;;;28.10;62.40;;;;;;6097073;23;20007;-76
2023/09/09 08:44:13;;;;;;;4.95;4.45;;;;;;;;;;6107067;23;20030;-77
2023/09/09 08:46:39;;;;;;;5.20;4.47;;;;;;;;;;6106625;23;20094;-76
2023/09/09 08:49:05;;;;;;;4.82;4.32;;;;;;;;;;6107346;23;20442;-76
2023/09/09 08:51:49;;;;;;;4.95;4.40;;;28.20;62.80;;;;;;6106983;23;20021;-78
2023/09/09 08:54:16;;;;;;;6.88;4.53;;;28.20;68.50;;;;;;6106991;23;20037;-76
2023/09/09 08:56:44;;;;;;;4.90;4.40;;;28.30;68.60;;;;;;6097361;23;19998;-76
2023/09/09 08:59:12;;;;;;;4.45;4.00;;;28.30;68.40;;;;;;6097274;23;19994;-76
2023/09/09 09:01:39;;;;;;;4.38;3.85;;;28.30;68.60;;;;;;6097318;23;20014;-76
2023/09/09 09:04:06;;;;;;;5.65;3.80;;;;;;;;;;6097281;23;20002;-76
2023/09/09 09:06:32;;;;;;;4.22;3.80;;;;;;;;;;6101029;23;20002;-76
2023/09/09 09:08:58;;;;;;;4.25;3.72;;;;;;;;;;6106658;23;20446;-76
2023/09/09 09:11:25;;;;;;;4.32;3.92;;;;;;;;;;6106471;23;20017;-76
2023/09/09 09:13:51;;;;;;;5.15;3.70;;;;;;;;;;6106644;23;20335;-76
2023/09/09 09:16:18;;;;;;;4.20;3.80;;;;;;;;;;6107053;23;20118;-76
2023/09/09 09:18:44;;;;;;;3.40;3.10;;;;;;;;;;6106547;23;20002;-76
2023/09/09 09:21:10;;;;;;;4.10;3.70;;;;;;;;;;6106487;23;20314;-76
2023/09/09 09:23:46;;;;;;;3.83;3.53;;;28.70;64.20;;;;;;6106619;23;20141;-76
2023/09/09 09:26:27;;;;;;;3.58;3.28;;;28.70;63.90;;;;;;6106612;23;20005;-76
2023/09/09 09:28:53;;;;;;;4.68;4.10;;;;;;;;;;6106732;23;20466;-77
2023/09/09 09:31:21;;;;;;;5.28;3.90;;;28.70;67.80;;;;;;6106402;23;20440;-76
2023/09/09 09:33:48;;;;;;;4.20;3.80;;;;;;;;;;6106403;23;20001;-74
2023/09/09 09:36:19;;;;;;;3.83;3.47;;;28.90;68.80;;;;;;6106233;23;20025;-77
2023/09/09 09:38:45;;;;;;;3.63;3.30;;;;;;;;;;6096595;23;20471;-77
2023/09/09 09:41:11;;;;;;;6.78;3.90;;;;;;;;;;6096109;23;20438;-77
2023/09/09 09:43:37;;;;;;;3.67;3.38;;;;;;;;;;6096838;23;20297;-75
2023/09/09 09:46:17;;;;;;;4.13;3.45;;;29.10;62.60;;;;;;6106796;23;20035;-78
2023/09/09 09:48:43;;;;;;;3.92;3.53;;;;;;;;;;6106236;23;20002;-77
2023/09/09 09:51:09;;;;;;;3.58;3.28;;;;;;;;;;6094758;23;20014;-77
2023/09/09 09:53:47;;;;;;;4.80;3.83;;;29.20;62.50;;;;;;6106160;23;20002;-77
2023/09/09 09:56:13;;;;;;;3.50;3.20;;;;;;;;;;6106268;23;20010;-73
2023/09/09 09:58:44;;;;;;;4.57;4.10;;;29.40;68.10;;;;;;6105899;23;19994;-74
2023/09/09 10:01:11;;;;;;;3.67;3.33;;;29.40;67.80;;;;;;6106073;23;20377;-74
2023/09/09 10:04:01;;;;;;;4.30;3.90;;;29.50;62.20;;;;;;6105921;23;19994;-73
2023/09/09 10:06:28;;;;;;;3.88;3.58;;;29.50;67.70;;;;;;6105992;23;20529;-73
2023/09/09 10:09:09;;;;;;;4.15;3.65;;;29.50;62.00;;;;;;6096353;23;20004;-73
2023/09/09 10:11:59;;;;;;;6.60;3.70;;;29.70;67.80;;;;;;6105734;23;20010;-73
2023/09/09 10:14:27;;;;;;;3.92;3.53;;;29.70;67.70;;;;;;6106411;23;20009;-77
2023/09/09 10:16:53;;;;;;;6.32;3.85;;;;;;;;;;6095917;23;20002;-77
2023/09/09 10:19:19;;;;;;;3.92;3.55;;;;;;;;;;6094264;23;20418;-77
2023/09/09 10:21:47;;;;;;;4.88;3.50;;;29.90;67.70;;;;;;6105642;23;20006;-77
2023/09/09 10:24:15;;;;;;;3.60;3.30;;;29.90;67.40;;;;;;6105725;23;19995;-78
2023/09/09 10:26:42;;;;;;;3.53;3.22;;;30.10;67.40;;;;;;6105825;23;20006;-74
2023/09/09 10:29:08;;;;;;;3.80;3.35;;;30.10;66.00;;;;;;6105894;23;20054;-76
2023/09/09 10:31:36;;;;;;;3.95;3.53;;;30.10;67.50;;;;;;6105616;23;20343;-74
2023/09/09 10:34:02;;;;;;;3.83;3.42;;;;;;;;;;6095848;23;20403;-74
2023/09/09 10:36:31;;;;;;;3.88;3.58;;;31.70;68.60;;;;;;6105326;23;20039;-74
2023/09/09 10:38:57;;;;;;;3.55;3.25;;;;;;;;;;6095939;23;19999;-73
2023/09/09 10:41:23;;;;;;;3.95;3.20;;;;;;;;;;6096637;23;20009;-77
2023/09/09 10:43:49;;;;;;;5.90;3.38;;;;;;;;;;6105294;23;20034;-78
2023/09/09 10:46:15;;;;;;;3.35;3.00;;;;;;;;;;6094021;23;20057;-77
2023/09/09 10:48:44;;;;;;;3.45;3.15;;;30.50;61.10;;;;;;6105352;23;20030;-78
2023/09/09 10:51:13;;;;;;;3.25;2.97;;;30.60;67.00;;;;;;6093767;23;20032;-77
2023/09/09 10:53:39;;;;;;;3.30;3.08;;;;;;;;;;6104996;23;20335;-73
2023/09/09 10:56:16;;;;;;;5.22;3.33;;;30.80;61.00;;;;;;6105283;23;20081;-73
2023/09/09 10:58:46;;;;;;;3.38;3.08;;;30.80;66.50;;;;;;6105300;23;20407;-73
2023/09/09 11:01:22;;;;;;;3.05;2.85;;;30.90;66.30;;;;;;6105376;23;20002;-73
2023/09/09 11:03:49;;;;;;;3.10;2.90;;;;;;;;;;6095831;23;20002;-72
2023/09/09 11:06:25;;;;;;;2.85;2.65;;;31.00;60.90;;;;;;6105219;23;20338;-72
2023/09/09 11:08:55;;;;;;;3.20;2.90;;;31.10;60.50;;;;;;6105080;23;20485;-72
2023/09/09 11:11:31;;;;;;;3.92;3.22;;;;;;;;;;6105612;23;20085;-79
2023/09/09 11:13:57;;;;;;;3.17;2.97;;;;;;;;;;6093730;23;19998;-77
2023/09/09 11:16:33;;;;;;;3.30;3.00;;;;;;;;;;6104980;23;20276;-78
2023/09/09 11:19:04;;;;;;;3.28;2.70;;;;;;;;;;6104937;23;19998;-77
2023/09/09 11:21:34;;;;;;;2.95;2.75;;;31.40;65.00;;;;;;6105098;23;20430;-72
2023/09/09 11:24:02;;;;;;;3.53;3.17;;;31.50;63.00;;;;;;6105058;23;19998;-73
2023/09/09 11:26:28;;;;;;;3.53;3.08;;;;;;;;;;6105071;23;20002;-73
2023/09/09 11:28:54;;;;;;;2.90;2.70;;;;;;;;;;6105000;23;20042;-73
2023/09/09 11:31:20;;;;;;;2.70;2.50;;;;;;;;;;6104756;23;20013;-72
2023/09/09 11:33:46;;;;;;;3.47;3.17;;;;;;;;;;6095384;23;20330;-72
2023/09/09 11:36:17;;;;;;;4.53;2.63;;;31.70;59.70;;;;;;6104448;23;20018;-71
2023/09/09 11:38:43;;;;;;;3.17;2.88;;;;;;;;;;6096155;23;20379;-78
2023/09/09 11:41:09;;;;;;;2.70;2.50;;;;;;;;;;6093353;23;20034;-79
2023/09/09 11:43:35;;;;;;;3.03;2.83;;;;;;;;;;6103432;23;20005;-79
2023/09/09 11:46:01;;;;;;;3.00;2.80;;;;;;;;;;6093465;23;20307;-82
2023/09/09 11:48:28;;;;;;;2.95;2.75;;;;;;;;;;6095528;23;20073;-77
2023/09/09 11:50:55;;;;;;;2.85;2.65;;;;;;;;;;6104813;23;20085;-72
2023/09/09 11:53:22;;;;;;;2.97;2.50;;;32.10;65.00;;;;;;6104984;23;19998;-72
2023/09/09 11:55:54;;;;;;;3.13;2.83;;;32.10;59.30;;;;;;6104923;23;20002;-72
2023/09/09 11:58:20;;;;;;;2.67;2.47;;;;;;;;;;6105244;23;20069;-73
2023/09/09 12:00:46;;;;;;;2.83;2.63;;;;;;;;;;6104813;23;20509;-73
2023/09/09 12:03:22;;;;;;;2.58;2.38;;;32.30;64.90;;;;;;6104657;23;20334;-74
2023/09/09 12:05:51;;;;;;;2.55;2.35;;;32.30;64.80;;;;;;6104761;23;19995;-74
2023/09/09 12:08:34;;;;;;;2.97;2.67;;;;;;;;;;6105417;23;19998;-82
2023/09/09 12:11:01;;;;;;;3.28;2.55;;;;;;;;;;6095260;23;20021;-82
2023/09/09 12:13:28;;;;;;;2.58;2.38;;;;;;;;;;6094859;23;20375;-82
2023/09/09 12:15:55;;;;;;;2.47;2.28;;;;;;;;;;6094818;23;20030;-83
2023/09/09 12:18:22;;;;;;;3.45;2.17;;;;;;;;;;6095366;23;20006;-83
2023/09/09 12:20:58;;;;;;;2.78;2.47;;;;;;;;;;6095177;23;20010;-82
2023/09/09 12:23:31;;;;;;;7.18;2.70;;;33.10;65.00;;;;;;6094861;23;20445;-79
2023/09/09 12:26:13;;;;;;;2.50;2.30;;;32.70;64.60;;;;;;6095061;23;20438;-80
2023/09/09 12:28:43;;;;;;;6.28;2.92;;;32.70;61.40;;;;;;6095282;23;20069;-80
2023/09/09 12:31:10;;;;;;;2.30;2.15;;;32.70;63.90;;;;;;6094728;23;20015;-78
2023/09/09 12:33:42;;;;;;;2.90;2.65;;;32.80;58.70;;;;;;6095217;23;19998;-80
2023/09/09 12:36:19;;;;;;;2.70;2.50;;;32.90;58.60;;;;;;6096087;23;20058;-71
2023/09/09 12:38:47;;;;;;;2.70;2.50;;;;;;;;;;6094916;23;20009;-74
2023/09/09 12:41:22;;;;;;;3.00;2.08;;;32.90;58.40;;;;;;6095165;23;20028;-74
2023/09/09 12:43:51;;;;;;;2.72;2.53;;;33.00;64.00;;;;;;6095187;23;20091;-73
2023/09/09 12:46:19;;;;;;;2.35;2.15;;;33.10;64.00;;;;;;6095234;23;19999;-74
2023/09/09 12:49:03;;;;;;;4.18;2.60;;;;;;;;;;6094866;23;20130;-81
2023/09/09 12:51:32;;;;;;;2.70;2.50;;;;;;;;;;6095095;23;20038;-81
2023/09/09 12:54:00;;;;;;;2.42;2.03;;;;;;;;;;6094852;23;20005;-81
2023/09/09 12:56:27;;;;;;;2.10;2.00;;;;;;;;;;6094754;23;20010;-81
2023/09/09 12:58:54;;;;;;;2.58;2.38;;;;;;;;;;6094817;23;20081;-81
2023/09/09 13:01:20;;;;;;;2.67;2.38;;;;;;;;;;6104445;23;20435;-81
2023/09/09 13:03:46;;;;;;;2.45;2.25;;;;;;;;;;6105228;23;20053;-81
2023/09/09 13:06:12;;;;;;;2.40;2.20;;;;;;;;;;6104546;23;19998;-82
2023/09/09 13:08:38;;;;;;;2.70;2.50;;;;;;;;;;6102958;23;20002;-81
2023/09/09 13:11:04;;;;;;;2.38;2.17;;;;;;;;;;6095018;23;20034;-82
2023/09/09 13:13:30;;;;;;;2.65;2.45;;;;;;;;;;6104588;23;20334;-82
2023/09/09 13:15:56;;;;;;;3.55;2.22;;;;;;;;;;6104592;23;20069;-82
2023/09/09 13:18:22;;;;;;;2.22;2.13;;;;;;;;;;6106241;23;20101;-82
2023/09/09 13:20:49;;;;;;;2.42;2.22;;;;;;;;;;6106321;23;20002;-82
2023/09/09 13:23:15;;;;;;;4.55;2.83;;;33.60;60.70;;;;;;6106254;23;20002;-82
2023/09/09 13:25:41;;;;;;;2.72;2.53;;;;;;;;;;6106312;23;20014;-82
2023/09/09 13:28:07;;;;;;;2.60;2.40;;;;;;;;;;6106219;23;19994;-82
2023/09/09 13:30:34;;;;;;;2.78;2.40;;;33.70;62.50;;;;;;6105900;23;20319;-82
2023/09/09 13:33:00;;;;;;;2.38;2.17;;;;;;;;;;6106674;23;20020;-82
2023/09/09 13:35:26;;;;;;;2.20;2.10;;;;;;;;;;6105799;23;20007;-81
2023/09/09 13:37:53;;;;;;;2.55;2.35;;;;;;;;;;6096343;23;20031;-82
2023/09/09 13:40:19;;;;;;;2.25;2.10;;;;;;;;;;6105985;23;20005;-82
2023/09/09 13:42:46;;;;;;;2.70;2.50;;;;;;;;;;6096409;23;20014;-81
2023/09/09 13:45:12;;;;;;;2.53;2.33;;;;;;;;;;6096185;23;20142;-81
2023/09/09 13:47:39;;;;;;;2.35;2.20;;;;;;;;;;6096131;23;20434;-82
2023/09/09 13:50:07;;;;;;;2.55;2.38;;;34.00;61.20;;;;;;6096463;23;20024;-82
2023/09/09 13:52:33;;;;;;;2.65;2.45;;;;;;;;;;6095863;23;19998;-81
2023/09/09 13:55:02;;;;;;;3.22;2.42;;;;;;;;;;6096460;23;20431;-79
2023/09/09 13:57:29;;;;;;;2.03;1.93;;;;;;;;;;6096500;23;19998;-78
2023/09/09 13:59:58;;;;;;;2.03;1.92;;;;;;;;;;6096471;23;20002;-80
2023/09/09 14:02:25;;;;;;;2.28;2.17;;;;;;;;;;6096535;23;20062;-74
2023/09/09 14:04:52;;;;;;;2.38;2.25;;;;;;;;;;6096471;23;20351;-76
2023/09/09 14:07:18;;;;;;;2.60;2.40;;;;;;;;;;6096378;23;20003;-75
2023/09/09 14:09:45;;;;;;;2.70;2.50;;;;;;;;;;6096177;23;20014;-75
2023/09/09 14:12:12;;;;;;;2.50;2.33;;;;;;;;;;6096377;23;20006;-75
2023/09/09 14:14:39;;;;;;;2.28;2.08;;;;;;;;;;6096231;23;20007;-76